Time;durP1;ratioP1;P1;durP2;ratioP2;P2;SDS_P1;SDS_P2;PMS_P1;PMS_P2;Temp;Humidity;BMP_temperature;BMP_pressure;BME280_temperature;BME280_humidity;BME280_pressure;Samples;Min_cycle;Max_cycle;Signal;HPM_P1;HPM_P2
2023/12/15 00:00:34;;;;;;;21.38;14.45;;;;;;;5.42;100.00;102684.69;5033997;28;20021;-54
2023/12/15 00:02:59;;;;;;;22.60;14.63;;;;;;;5.43;100.00;102686.38;5036511;28;20021;-56
2023/12/15 00:05:25;;;;;;;22.38;15.32;;;;;;;5.43;100.00;102687.28;5033230;28;20478;-55
2023/12/15 00:07:50;;;;;;;21.63;15.63;;;;;;;5.46;100.00;102688.94;5034584;28;20040;-55
2023/12/15 00:10:15;;;;;;;22.65;14.75;;;;;;;5.50;100.00;102695.88;5036150;28;20049;-54
2023/12/15 00:12:42;;;;;;;24.60;16.25;;;;;;;5.52;100.00;102704.63;5030519;28;20382;-53
2023/12/15 00:15:07;;;;;;;23.92;16.17;;;;;;;5.55;100.00;102710.66;5033586;28;20080;-55
2023/12/15 00:17:33;;;;;;;23.42;15.70;;;;;;;5.57;100.00;102715.91;5033192;28;20021;-56
2023/12/15 00:19:58;;;;;;;26.58;16.50;;;;;;;5.59;100.00;102714.09;5033695;28;20061;-57
2023/12/15 00:22:23;;;;;;;25.98;16.95;;;;;;;5.61;100.00;102716.69;5032789;28;20079;-55
2023/12/15 00:24:48;;;;;;;23.80;16.27;;;;;;;5.63;100.00;102726.31;5035202;28;20057;-55
2023/12/15 00:27:14;;;;;;;29.52;18.40;;;;;;;5.64;100.00;102719.25;5031301;28;20098;-57
2023/12/15 00:29:39;;;;;;;24.95;17.48;;;;;;;5.67;100.00;102719.19;5028548;28;20052;-56
2023/12/15 00:32:04;;;;;;;24.55;17.63;;;;;;;5.68;100.00;102713.88;5030452;28;20022;-54
2023/12/15 00:34:30;;;;;;;22.15;16.52;;;;;;;5.68;100.00;102711.22;5034623;28;20124;-57
2023/12/15 00:36:55;;;;;;;28.63;17.98;;;;;;;5.68;100.00;102713.88;5031345;28;20492;-58
2023/12/15 00:39:20;;;;;;;26.33;17.27;;;;;;;5.68;100.00;102703.31;5030728;28;20022;-56
2023/12/15 00:41:46;;;;;;;25.55;17.77;;;;;;;5.68;100.00;102712.97;5028912;28;20041;-57
2023/12/15 00:44:11;;;;;;;25.90;18.75;;;;;;;5.67;100.00;102716.53;5029824;28;20120;-57
2023/12/15 00:46:36;;;;;;;27.17;19.25;;;;;;;5.69;100.00;102725.28;5032859;28;20021;-57
2023/12/15 00:49:01;;;;;;;30.70;19.65;;;;;;;5.65;100.00;102719.22;5036953;28;20033;-55
2023/12/15 00:51:27;;;;;;;31.75;19.42;;;;;;;5.65;100.00;102715.72;5034027;28;20028;-58
2023/12/15 00:53:52;;;;;;;28.67;19.10;;;;;;;5.64;100.00;102719.25;5030949;28;20030;-58
2023/12/15 00:56:17;;;;;;;29.55;19.58;;;;;;;5.65;100.00;102724.47;5026937;28;20425;-58
2023/12/15 00:58:42;;;;;;;29.77;19.95;;;;;;;5.65;100.00;102724.47;5032174;28;20021;-56
2023/12/15 01:01:08;;;;;;;31.83;19.80;;;;;;;5.65;100.00;102727.13;5030718;28;20017;-57
2023/12/15 01:03:33;;;;;;;30.48;20.10;;;;;;;5.66;100.00;102735.88;5033304;28;20028;-56
2023/12/15 01:05:58;;;;;;;29.05;20.02;;;;;;;5.65;100.00;102740.31;5032550;28;20116;-58
2023/12/15 01:08:24;;;;;;;28.25;20.33;;;;;;;5.67;100.00;102743.75;5031394;28;20030;-57
2023/12/15 01:10:50;;;;;;;29.60;21.25;;;;;;;5.65;100.00;102737.66;5029616;28;20052;-57
2023/12/15 01:13:15;;;;;;;32.00;21.02;;;;;;;5.68;100.00;102734.06;5031209;28;20025;-57
2023/12/15 01:15:40;;;;;;;32.78;21.58;;;;;;;5.65;100.00;102745.56;5033512;28;20028;-58
2023/12/15 01:18:06;;;;;;;29.27;20.55;;;;;;;5.66;100.00;102746.44;5032470;28;20073;-56
2023/12/15 01:20:31;;;;;;;31.83;21.83;;;;;;;5.65;100.00;102753.47;5035395;28;20028;-57
2023/12/15 01:22:56;;;;;;;34.13;22.52;;;;;;;5.67;100.00;102749.03;5030202;28;20430;-57
2023/12/15 01:25:22;;;;;;;32.72;21.85;;;;;;;5.69;100.00;102746.34;5032478;28;20599;-56
2023/12/15 01:27:47;;;;;;;33.38;21.88;;;;;;;5.68;100.00;102753.41;5032297;28;20017;-57
2023/12/15 01:30:12;;;;;;;31.15;21.85;;;;;;;5.68;100.00;102748.13;5031529;28;20104;-56
2023/12/15 01:32:38;;;;;;;34.83;22.67;;;;;;;5.70;100.00;102756.00;5031420;28;20471;-56
2023/12/15 01:35:04;;;;;;;26.02;20.15;;;;;;;5.70;100.00;102759.50;5035126;28;20109;-58
2023/12/15 01:37:29;;;;;;;29.42;20.83;;;;;;;5.70;100.00;102763.91;5032307;28;20033;-57
2023/12/15 01:39:55;;;;;;;29.52;20.70;;;;;;;5.70;100.00;102756.88;5034619;28;20021;-57
2023/12/15 01:42:20;;;;;;;27.70;20.35;;;;;;;5.72;100.00;102760.31;5031223;28;20479;-58
2023/12/15 01:44:45;;;;;;;26.73;20.00;;;;;;;5.73;100.00;102769.13;5028494;28;20053;-56
2023/12/15 01:47:18;;;;;;;29.40;19.85;;;;;;;5.71;100.00;102766.53;5032945;28;20561;-57
2023/12/15 01:49:45;;;;;;;28.52;20.17;;;;;;;5.74;100.00;102765.56;5032535;28;20028;-57
2023/12/15 01:52:10;;;;;;;27.10;20.17;;;;;;;5.75;100.00;102760.25;5032505;28;20091;-58
2023/12/15 01:54:35;;;;;;;28.10;20.30;;;;;;;5.74;100.00;102771.72;5027872;28;20025;-58
2023/12/15 01:57:01;;;;;;;24.17;19.65;;;;;;;5.77;100.00;102783.94;5032235;28;20087;-58
2023/12/15 01:59:26;;;;;;;27.55;19.63;;;;;;;5.77;100.00;102778.66;5032467;28;20112;-58
2023/12/15 02:01:51;;;;;;;29.05;20.30;;;;;;;5.78;100.00;102782.16;5031043;28;20041;-58
2023/12/15 02:04:16;;;;;;;23.95;19.00;;;;;;;5.78;100.00;102788.31;5038057;28;20466;-58
2023/12/15 02:06:42;;;;;;;26.50;18.65;;;;;;;5.79;100.00;102781.28;5033195;28;20025;-58
2023/12/15 02:09:07;;;;;;;27.00;20.10;;;;;;;5.81;100.00;102785.63;5034762;28;20021;-59
2023/12/15 02:11:32;;;;;;;27.50;20.13;;;;;;;5.82;100.00;102794.38;5035969;28;20095;-57
2023/12/15 02:13:58;;;;;;;30.00;19.98;;;;;;;5.83;100.00;102798.72;5032854;28;20048;-58
2023/12/15 02:16:23;;;;;;;23.95;19.38;;;;;;;5.83;100.00;102791.72;5033597;28;20043;-58
2023/12/15 02:18:48;;;;;;;26.75;20.20;;;;;;;5.85;100.00;102792.53;5035395;28;20133;-59
2023/12/15 02:21:13;;;;;;;27.15;20.23;;;;;;;5.86;100.00;102793.38;5033830;28;20022;-57
2023/12/15 02:23:39;;;;;;;25.50;19.80;;;;;;;5.86;100.00;102796.03;5032880;28;20025;-57
2023/12/15 02:26:04;;;;;;;25.98;20.60;;;;;;;5.87;100.00;102801.25;5035978;28;20041;-58
2023/12/15 02:28:29;;;;;;;28.55;21.40;;;;;;;5.87;100.00;102803.91;5035010;28;20036;-57
2023/12/15 02:30:54;;;;;;;27.42;21.10;;;;;;;5.87;100.00;102805.69;5032662;28;20028;-55
2023/12/15 02:33:20;;;;;;;28.27;20.77;;;;;;;5.87;100.00;102805.69;5031901;28;20459;-58
2023/12/15 02:35:47;;;;;;;31.00;21.08;;;;;;;5.88;100.00;102813.56;5033446;28;20021;-58
2023/12/15 02:38:18;;;;;;;29.33;20.92;;;;;;;5.88;100.00;102821.47;5035891;28;20071;-59
2023/12/15 02:40:44;;;;;;;28.10;21.17;;;;;;;5.90;100.00;102824.94;5037429;28;20034;-58
2023/12/15 02:43:12;;;;;;;30.38;21.48;;;;;;;5.90;100.00;102830.19;5033008;28;20091;-58
2023/12/15 02:45:38;;;;;;;31.55;21.15;;;;;;;5.93;100.00;102824.84;5035656;28;20028;-59
2023/12/15 02:48:03;;;;;;;32.97;21.70;;;;;;;5.95;100.00;102823.97;5031082;28;20021;-57
2023/12/15 02:50:29;;;;;;;30.77;22.30;;;;;;;5.95;100.00;102832.72;5030538;28;20040;-58
2023/12/15 02:52:54;;;;;;;33.05;22.15;;;;;;;5.98;100.00;102842.34;5036082;28;20257;-57
2023/12/15 02:55:19;;;;;;;31.02;21.50;;;;;;;5.98;100.00;102837.97;5037090;28;20025;-55
2023/12/15 02:57:44;;;;;;;37.97;22.65;;;;;;;5.99;100.00;102841.47;5031483;28;20497;-57
2023/12/15 03:00:10;;;;;;;31.05;21.90;;;;;;;6.00;100.00;102851.97;5034749;28;20025;-58
2023/12/15 03:02:36;;;;;;;33.40;23.55;;;;;;;6.01;100.00;102858.09;5037408;28;20400;-57
2023/12/15 03:05:01;;;;;;;36.33;23.58;;;;;;;6.00;100.00;102866.94;5032328;28;20025;-57
2023/12/15 03:07:26;;;;;;;32.70;22.23;;;;;;;6.02;100.00;102870.41;5035117;28;20080;-58
2023/12/15 03:09:51;;;;;;;32.25;22.33;;;;;;;6.03;100.00;102872.13;5034078;28;20053;-58
2023/12/15 03:12:17;;;;;;;34.53;22.63;;;;;;;6.04;100.00;102872.06;5034354;28;20378;-58
2023/12/15 03:14:42;;;;;;;33.72;23.27;;;;;;;6.06;100.00;102875.56;5032378;28;20029;-58
2023/12/15 03:17:07;;;;;;;31.40;23.08;;;;;;;6.08;100.00;102865.84;5033159;28;20045;-57
2023/12/15 03:19:32;;;;;;;32.45;22.90;;;;;;;6.13;100.00;102862.19;5032876;28;20022;-58
2023/12/15 03:21:58;;;;;;;34.28;23.23;;;;;;;6.16;100.00;102878.84;5034466;28;20479;-58
2023/12/15 03:24:23;;;;;;;35.42;23.83;;;;;;;6.19;100.00;102884.03;5035183;28;20405;-56
2023/12/15 03:26:48;;;;;;;35.83;24.05;;;;;;;6.23;100.00;102888.34;5034328;28;20026;-57
2023/12/15 03:29:13;;;;;;;36.60;23.58;;;;;;;6.25;100.00;102898.84;5033307;28;20021;-56
2023/12/15 03:31:41;;;;;;;35.83;23.35;;;;;;;6.25;100.00;102890.94;5031832;28;20030;-56
2023/12/15 03:34:06;;;;;;;35.30;22.92;;;;;;;6.28;100.00;102896.13;5038170;28;20032;-55
2023/12/15 03:36:35;;;;;;;35.60;24.35;;;;;;;6.31;100.00;102909.22;5033609;28;20029;-55
2023/12/15 03:39:00;;;;;;;37.55;24.00;;;;;;;6.33;100.00;102910.09;5034890;28;20353;-56
2023/12/15 03:41:26;;;;;;;37.22;24.92;;;;;;;6.32;100.00;102908.34;5033424;28;20044;-58
2023/12/15 03:43:51;;;;;;;43.67;26.20;;;;;;;6.34;100.00;102908.28;5032743;28;20033;-56
2023/12/15 03:46:16;;;;;;;41.15;25.15;;;;;;;6.37;100.00;102917.00;5031456;28;20454;-57
2023/12/15 03:48:41;;;;;;;34.55;25.10;;;;;;;6.38;100.00;102917.84;5035574;28;20033;-54
2023/12/15 03:51:07;;;;;;;41.35;25.08;;;;;;;6.38;100.00;102909.94;5031402;28;20504;-53
2023/12/15 03:53:32;;;;;;;42.70;25.48;;;;;;;6.40;100.00;102913.44;5032412;28;20037;-55
2023/12/15 03:55:57;;;;;;;41.92;26.63;;;;;;;6.41;100.00;102921.31;5031643;28;20456;-54
2023/12/15 03:58:23;;;;;;;40.63;25.70;;;;;;;6.41;100.00;102918.66;5031480;28;20087;-56
2023/12/15 04:00:48;;;;;;;39.53;25.95;;;;;;;6.42;100.00;102923.03;5015941;28;20379;-55
2023/12/15 04:03:13;;;;;;;45.33;27.92;;;;;;;6.44;100.00;102929.13;5031208;28;20091;-57
2023/12/15 04:05:38;;;;;;;44.92;28.17;;;;;;;6.46;100.00;102926.44;5032106;28;20490;-57
2023/12/15 04:08:04;;;;;;;45.40;27.23;;;;;;;6.47;100.00;102931.69;5033744;28;20031;-55
2023/12/15 04:10:29;;;;;;;42.55;28.08;;;;;;;6.48;100.00;102932.56;5031043;28;20049;-57
2023/12/15 04:12:54;;;;;;;47.83;28.00;;;;;;;6.50;100.00;102935.19;5031350;28;20026;-57
2023/12/15 04:15:19;;;;;;;48.10;28.52;;;;;;;6.51;100.00;102936.91;5032317;28;20029;-58
2023/12/15 04:17:45;;;;;;;50.00;29.25;;;;;;;6.51;100.00;102943.03;5033158;28;20020;-56
2023/12/15 04:20:11;;;;;;;49.30;29.25;;;;;;;6.53;100.00;102935.06;5034439;28;20037;-55
2023/12/15 04:22:36;;;;;;;50.63;29.92;;;;;;;6.52;100.00;102941.28;5031972;28;20025;-57
2023/12/15 04:25:01;;;;;;;50.13;30.95;;;;;;;6.52;100.00;102939.50;5030356;28;20021;-55
2023/12/15 04:27:28;;;;;;;53.20;30.80;;;;;;;6.53;100.00;102938.59;5033472;28;20139;-57
2023/12/15 04:29:53;;;;;;;51.80;30.52;;;;;;;6.55;100.00;102944.69;5034279;28;20380;-56
2023/12/15 04:32:18;;;;;;;52.03;31.77;;;;;;;6.57;100.00;102956.09;5030833;28;20044;-56
2023/12/15 04:34:43;;;;;;;57.17;31.50;;;;;;;6.56;100.00;102945.56;5032783;28;20108;-56
2023/12/15 04:37:09;;;;;;;57.03;32.28;;;;;;;6.56;100.00;102961.41;5031880;28;20417;-57
2023/12/15 04:39:34;;;;;;;54.05;30.95;;;;;;;6.56;100.00;102966.69;5030698;28;20025;-56
2023/12/15 04:41:59;;;;;;;53.40;31.92;;;;;;;6.57;100.00;102966.66;5031929;28;20017;-57
2023/12/15 04:44:25;;;;;;;58.78;31.73;;;;;;;6.60;100.00;102963.06;5033382;28;20029;-57
2023/12/15 04:46:55;;;;;;;57.65;33.65;;;;;;;6.59;100.00;102956.91;5032124;28;20017;-57
2023/12/15 04:49:20;;;;;;;56.85;32.25;;;;;;;6.59;100.00;102964.81;5010097;28;20029;-57
2023/12/15 04:51:46;;;;;;;56.58;32.25;;;;;;;6.60;100.00;102963.06;5033730;28;20028;-58
2023/12/15 04:54:11;;;;;;;53.33;31.92;;;;;;;6.60;100.00;102969.22;5031682;28;20564;-56
2023/12/15 04:56:36;;;;;;;58.67;32.40;;;;;;;6.60;100.00;102973.63;5031250;28;20057;-57
2023/12/15 04:59:01;;;;;;;57.25;31.73;;;;;;;6.63;100.00;102984.13;5030337;28;20083;-58
2023/12/15 05:01:27;;;;;;;53.08;30.67;;;;;;;6.63;100.00;102990.25;5030645;28;20047;-57
2023/12/15 05:03:52;;;;;;;52.88;31.85;;;;;;;6.65;100.00;102988.44;5032888;28;20029;-58
2023/12/15 05:06:22;;;;;;;61.03;34.22;;;;;;;6.66;100.00;102986.66;5032988;28;20034;-57
2023/12/15 05:08:50;;;;;;;58.60;33.85;;;;;;;6.65;100.00;102977.88;5029049;28;20033;-57
2023/12/15 05:11:16;;;;;;;59.63;33.08;;;;;;;6.68;100.00;102987.50;5034132;28;20042;-57
2023/12/15 05:13:42;;;;;;;57.72;33.60;;;;;;;6.69;100.00;102983.09;5030138;28;20022;-56
2023/12/15 05:16:08;;;;;;;58.47;33.63;;;;;;;6.69;100.00;102985.72;5032617;28;20071;-57
2023/12/15 05:18:33;;;;;;;61.35;34.58;;;;;;;6.69;100.00;102983.09;5035345;28;20359;-55
2023/12/15 05:20:59;;;;;;;68.55;35.28;;;;;;;6.70;100.00;102983.03;5029805;28;20071;-58
2023/12/15 05:23:25;;;;;;;65.05;35.28;;;;;;;6.71;100.00;102992.72;5031265;28;20017;-56
2023/12/15 05:25:50;;;;;;;60.33;35.53;;;;;;;6.71;100.00;103000.63;5014649;28;20075;-58
2023/12/15 05:28:15;;;;;;;59.58;35.63;;;;;;;6.74;100.00;103002.31;5030839;28;20090;-57
2023/12/15 05:30:40;;;;;;;63.67;35.60;;;;;;;6.73;100.00;103011.13;5032763;28;20032;-57
2023/12/15 05:33:06;;;;;;;63.15;36.33;;;;;;;6.74;100.00;103011.09;5032509;28;20020;-58
2023/12/15 05:35:33;;;;;;;62.08;36.17;;;;;;;6.75;100.00;103010.19;5030643;28;20026;-58
2023/12/15 05:37:58;;;;;;;66.78;36.67;;;;;;;6.76;100.00;103006.66;5035338;28;20017;-57
2023/12/15 05:40:23;;;;;;;68.60;37.10;;;;;;;6.79;100.00;103025.06;5038324;28;20036;-57
2023/12/15 05:42:49;;;;;;;66.40;37.58;;;;;;;6.80;100.00;103028.59;5035347;28;20025;-57
2023/12/15 05:45:14;;;;;;;67.90;36.97;;;;;;;6.80;100.00;103026.78;5036808;28;20021;-57
2023/12/15 05:47:40;;;;;;;63.78;37.08;;;;;;;6.82;100.00;103038.19;5036455;28;20075;-57
2023/12/15 05:50:06;;;;;;;62.58;38.55;;;;;;;6.83;100.00;103047.00;5034305;28;20083;-57
2023/12/15 05:52:31;;;;;;;65.70;38.28;;;;;;;6.83;100.00;103039.94;5035261;28;20032;-58
2023/12/15 05:54:57;;;;;;;63.10;36.78;;;;;;;6.82;100.00;103048.75;5036510;28;20434;-58
2023/12/15 05:57:22;;;;;;;68.00;38.70;;;;;;;6.83;100.00;103052.28;5018010;28;20029;-58
2023/12/15 05:59:47;;;;;;;70.65;37.70;;;;;;;6.83;100.00;103045.22;5034631;28;20017;-58
2023/12/15 06:02:13;;;;;;;73.28;38.80;;;;;;;6.83;100.00;103039.06;5037516;28;20418;-58
2023/12/15 06:04:38;;;;;;;69.13;39.08;;;;;;;6.83;100.00;103044.34;5036947;28;20018;-58
2023/12/15 06:07:03;;;;;;;70.93;38.72;;;;;;;6.82;100.00;103032.91;5035731;28;20099;-56
2023/12/15 06:09:29;;;;;;;71.28;39.55;;;;;;;6.81;100.00;103028.53;5035123;28;20531;-58
2023/12/15 06:11:54;;;;;;;68.32;39.50;;;;;;;6.80;100.00;103026.78;5035448;28;20022;-59
2023/12/15 06:14:22;;;;;;;75.90;40.20;;;;;;;6.80;100.00;103026.78;5034588;28;20022;-58
2023/12/15 06:16:48;;;;;;;73.18;39.85;;;;;;;6.81;100.00;103030.28;5037324;28;20064;-58
2023/12/15 06:19:14;;;;;;;69.55;39.25;;;;;;;6.79;100.00;103034.75;5034538;28;20052;-58
2023/12/15 06:21:39;;;;;;;68.90;40.00;;;;;;;6.79;100.00;103040.03;5033461;28;20485;-58
2023/12/15 06:24:05;;;;;;;75.03;41.30;;;;;;;6.79;100.00;103046.19;5036554;28;20021;-56
2023/12/15 06:26:30;;;;;;;72.28;41.38;;;;;;;6.79;100.00;103048.81;5031957;28;20029;-57
2023/12/15 06:28:56;;;;;;;70.15;40.65;;;;;;;6.81;100.00;103051.44;5034555;28;20383;-56
2023/12/15 06:31:21;;;;;;;71.50;41.60;;;;;;;6.84;100.00;103046.97;5033530;28;20100;-57
2023/12/15 06:33:47;;;;;;;74.60;40.20;;;;;;;6.82;100.00;103058.47;5035934;28;20022;-57
2023/12/15 06:36:13;;;;;;;71.25;41.45;;;;;;;6.82;100.00;103069.88;5032666;28;20033;-56
2023/12/15 06:38:42;;;;;;;75.95;40.83;;;;;;;6.83;100.00;103078.69;5034783;28;20068;-56
2023/12/15 06:41:09;;;;;;;74.38;41.97;;;;;;;6.83;100.00;103074.28;5031710;28;20112;-58
2023/12/15 06:43:37;;;;;;;71.60;42.70;;;;;;;6.86;100.00;103078.59;5036904;28;20037;-58
2023/12/15 06:46:03;;;;;;;73.78;42.38;;;;;;;6.86;100.00;103073.31;5034927;28;20107;-57
2023/12/15 06:48:28;;;;;;;80.65;41.65;;;;;;;6.88;100.00;103074.16;5031083;28;20117;-55
2023/12/15 06:50:53;;;;;;;72.90;41.13;;;;;;;6.90;100.00;103071.47;5036795;28;20040;-56
2023/12/15 06:53:19;;;;;;;76.18;42.42;;;;;;;6.91;100.00;103083.75;5036096;28;20017;-57
2023/12/15 06:55:44;;;;;;;77.45;42.90;;;;;;;6.91;100.00;103084.66;5032941;28;20031;-57
2023/12/15 06:58:09;;;;;;;75.30;42.22;;;;;;;6.94;100.00;103083.69;5036383;28;20094;-57
2023/12/15 07:00:35;;;;;;;70.03;41.78;;;;;;;6.95;100.00;103086.28;5036211;28;20101;-58
2023/12/15 07:03:00;;;;;;;69.85;41.65;;;;;;;6.96;100.00;103097.72;5035014;28;20390;-57
2023/12/15 07:05:25;;;;;;;76.88;42.97;;;;;;;6.99;100.00;103102.94;5035490;28;20049;-57
2023/12/15 07:07:50;;;;;;;65.18;40.22;;;;;;;7.00;100.00;103105.53;5027423;28;20120;-57
2023/12/15 07:10:16;;;;;;;76.72;41.85;;;;;;;7.01;100.00;103111.69;5034303;28;20041;-57
2023/12/15 07:12:42;;;;;;;73.75;42.13;;;;;;;7.03;100.00;103115.19;5030049;28;20032;-57
2023/12/15 07:15:08;;;;;;;80.18;42.75;;;;;;;7.03;100.00;103118.69;5031270;28;20398;-57
2023/12/15 07:17:33;;;;;;;73.90;42.55;;;;;;;7.03;100.00;103116.03;5029719;28;20056;-57
2023/12/15 07:19:58;;;;;;;76.35;41.10;;;;;;;7.04;100.00;103123.06;5031970;28;20123;-57
2023/12/15 07:22:23;;;;;;;78.32;42.50;;;;;;;7.06;100.00;103128.31;5035793;28;20039;-59
2023/12/15 07:24:49;;;;;;;77.70;41.80;;;;;;;7.06;100.00;103120.41;5032381;28;20524;-59
2023/12/15 07:27:14;;;;;;;71.82;41.33;;;;;;;7.08;100.00;103130.91;5033684;28;20549;-60
2023/12/15 07:29:40;;;;;;;74.38;42.67;;;;;;;7.06;100.00;103138.88;5029926;28;20109;-58
2023/12/15 07:32:05;;;;;;;74.75;41.95;;;;;;;7.05;100.00;103147.72;5035664;28;20037;-59
2023/12/15 07:34:31;;;;;;;77.85;41.83;;;;;;;7.08;100.00;103146.75;5030151;28;20025;-58
2023/12/15 07:36:56;;;;;;;72.53;41.40;;;;;;;7.06;100.00;103141.53;5032278;28;20124;-58
2023/12/15 07:39:21;;;;;;;82.95;42.17;;;;;;;7.05;100.00;103142.44;5031098;28;20104;-59
2023/12/15 07:41:48;;;;;;;78.78;42.03;;;;;;;7.04;100.00;103156.53;5033696;28;20037;-60
2023/12/15 07:44:14;;;;;;;88.70;42.33;;;;;;;7.01;100.00;103157.50;5035221;28;20459;-59
2023/12/15 07:46:40;;;;;;;73.10;41.78;;;;;;;6.99;100.00;103167.19;5030238;28;20033;-59
2023/12/15 07:49:05;;;;;;;81.28;43.80;;;;;;;6.95;100.00;103157.63;5031242;28;20025;-59
2023/12/15 07:51:31;;;;;;;83.05;43.60;;;;;;;6.95;100.00;103154.13;5029813;28;20370;-60
2023/12/15 07:53:56;;;;;;;82.13;42.80;;;;;;;6.92;100.00;103154.19;5028820;28;20095;-59
2023/12/15 07:56:24;;;;;;;83.22;42.47;;;;;;;6.87;100.00;103162.22;5036348;28;20378;-59
2023/12/15 07:58:49;;;;;;;76.65;42.30;;;;;;;6.87;100.00;103172.78;5033297;28;20052;-59
2023/12/15 08:01:19;;;;;;;82.78;43.58;;;;;;;6.83;100.00;103166.72;5033571;28;20479;-58
2023/12/15 08:03:45;;;;;;;82.35;42.33;;;;;;;6.81;100.00;103162.38;5031302;28;20076;-59
2023/12/15 08:06:12;;;;;;;82.53;43.25;;;;;;;6.80;100.00;103165.94;5031758;28;20029;-60
2023/12/15 08:08:38;;;;;;;85.35;44.03;;;;;;;6.78;100.00;103181.81;5030257;28;20041;-59
2023/12/15 08:11:04;;;;;;;89.00;43.15;;;;;;;6.78;100.00;103184.44;5038205;28;20041;-60
2023/12/15 08:13:30;;;;;;;83.28;42.10;;;;;;;6.78;100.00;103175.66;5032063;28;20384;-59
2023/12/15 08:15:55;;;;;;;81.25;42.60;;;;;;;6.77;100.00;103179.19;5033012;28;20076;-59
2023/12/15 08:18:20;;;;;;;81.88;43.05;;;;;;;6.76;100.00;103188.91;5033321;28;20064;-60
2023/12/15 08:20:47;;;;;;;86.22;42.30;;;;;;;6.74;100.00;103193.34;5035010;28;20055;-60
2023/12/15 08:23:13;;;;;;;83.25;43.30;;;;;;;6.74;100.00;103193.34;5033345;28;20037;-61
2023/12/15 08:25:38;;;;;;;80.65;41.33;;;;;;;6.74;100.00;103209.19;5038925;28;20028;-59
2023/12/15 08:28:03;;;;;;;84.22;40.97;;;;;;;6.75;100.00;103202.16;5038037;28;20029;-59
2023/12/15 08:30:29;;;;;;;88.88;42.08;;;;;;;6.74;100.00;103208.31;5036919;28;20025;-60
2023/12/15 08:32:55;;;;;;;79.15;41.60;;;;;;;6.73;100.00;103211.84;5034094;28;20013;-60
2023/12/15 08:35:20;;;;;;;81.78;41.67;;;;;;;6.73;100.00;103215.38;5035205;28;20029;-59
2023/12/15 08:37:45;;;;;;;88.03;42.55;;;;;;;6.74;100.00;103224.16;5029577;28;20052;-59
2023/12/15 08:40:11;;;;;;;78.63;40.70;;;;;;;6.73;100.00;103235.63;5034838;28;20033;-59
2023/12/15 08:42:36;;;;;;;80.70;40.40;;;;;;;6.73;100.00;103239.16;5034239;28;20410;-59
2023/12/15 08:45:02;;;;;;;81.68;40.97;;;;;;;6.73;100.00;103257.66;5027769;28;20041;-59
2023/12/15 08:47:27;;;;;;;76.75;41.67;;;;;;;6.74;100.00;103258.50;5032865;28;20062;-59
2023/12/15 08:49:52;;;;;;;90.03;41.53;;;;;;;6.75;100.00;103266.41;5039231;28;20040;-59
2023/12/15 08:52:18;;;;;;;85.45;42.03;;;;;;;6.77;100.00;103271.66;5030810;28;20032;-59
2023/12/15 08:54:43;;;;;;;75.88;40.63;;;;;;;6.78;100.00;103283.97;5031931;28;20381;-59
2023/12/15 08:57:08;;;;;;;77.82;39.55;;;;;;;6.78;100.00;103279.53;5031803;28;20519;-60
2023/12/15 08:59:34;;;;;;;75.50;41.90;;;;;;;6.80;100.00;103279.50;5035114;28;20438;-60
2023/12/15 09:01:59;;;;;;;86.15;41.45;;;;;;;6.81;100.00;103278.59;5032930;28;20115;-60
2023/12/15 09:04:24;;;;;;;73.55;39.97;;;;;;;6.82;100.00;103280.34;5034638;28;20324;-59
2023/12/15 09:06:50;;;;;;;83.10;40.15;;;;;;;6.83;100.00;103279.44;5037031;28;20504;-60
2023/12/15 09:09:15;;;;;;;76.10;40.30;;;;;;;6.85;100.00;103283.78;5034891;28;20485;-59
2023/12/15 09:11:40;;;;;;;71.05;38.00;;;;;;;6.86;100.00;103284.63;5039438;28;20047;-58
2023/12/15 09:14:06;;;;;;;71.18;39.90;;;;;;;6.88;100.00;103268.75;5038436;28;20471;-58
2023/12/15 09:16:31;;;;;;;83.70;38.28;;;;;;;6.88;100.00;103277.56;5031109;28;20040;-58
2023/12/15 09:18:57;;;;;;;73.47;40.63;;;;;;;6.89;100.00;103279.28;5034773;28;20030;-59
2023/12/15 09:21:22;;;;;;;69.20;37.03;;;;;;;6.92;100.00;103287.16;5041314;28;20063;-60
2023/12/15 09:23:47;;;;;;;71.45;38.92;;;;;;;6.93;100.00;103301.22;5034165;28;20025;-58
2023/12/15 09:26:13;;;;;;;66.82;37.20;;;;;;;6.95;100.00;103304.72;5034544;28;20091;-59
2023/12/15 09:28:38;;;;;;;76.13;38.72;;;;;;;6.96;100.00;103306.44;5038056;28;20025;-60
2023/12/15 09:31:04;;;;;;;66.40;37.70;;;;;;;6.96;100.00;103315.25;5029656;28;20053;-59
2023/12/15 09:33:29;;;;;;;71.20;36.47;;;;;;;6.98;100.00;103312.59;5031639;28;20043;-59
2023/12/15 09:35:56;;;;;;;72.22;37.78;;;;;;;7.00;100.00;103314.28;5030143;28;20459;-59
2023/12/15 09:38:21;;;;;;;69.88;38.08;;;;;;;7.00;100.00;103324.84;5037173;28;20026;-59
2023/12/15 09:40:46;;;;;;;70.18;35.60;;;;;;;7.02;100.00;103325.69;5027961;28;20356;-59
2023/12/15 09:43:12;;;;;;;69.35;36.45;;;;;;;7.04;100.00;103336.22;5033414;28;20078;-59
2023/12/15 09:45:37;;;;;;;65.30;34.67;;;;;;;7.04;100.00;103347.69;5031738;28;20522;-59
2023/12/15 09:48:06;;;;;;;68.00;33.25;;;;;;;7.07;100.00;103345.88;5030101;28;20029;-59
2023/12/15 09:50:32;;;;;;;61.63;33.93;;;;;;;7.06;100.00;103352.03;5032528;28;20099;-59
2023/12/15 09:52:58;;;;;;;63.90;33.13;;;;;;;7.06;100.00;103360.88;5033932;28;20028;-59
2023/12/15 09:55:24;;;;;;;60.17;32.47;;;;;;;7.07;100.00;103369.66;5031804;28;20025;-58
2023/12/15 09:57:50;;;;;;;59.95;33.58;;;;;;;7.09;100.00;103373.13;5035820;28;20033;-58
2023/12/15 10:00:16;;;;;;;60.33;33.83;;;;;;;7.09;100.00;103371.34;5031976;28;20029;-59
2023/12/15 10:02:42;;;;;;;58.78;33.42;;;;;;;7.08;100.00;103377.56;5034021;28;20029;-60
2023/12/15 10:05:08;;;;;;;62.72;32.53;;;;;;;7.10;100.00;103372.22;5032873;28;20493;-59
2023/12/15 10:07:33;;;;;;;60.30;31.30;;;;;;;7.10;100.00;103378.38;5038840;28;20033;-59
2023/12/15 10:09:59;;;;;;;55.35;32.03;;;;;;;7.13;100.00;103390.69;5036768;28;20037;-59
2023/12/15 10:12:25;;;;;;;55.05;31.33;;;;;;;7.12;100.00;103395.06;5038690;28;20474;-59
2023/12/15 10:14:51;;;;;;;60.58;31.55;;;;;;;7.12;100.00;103403.00;5031922;28;20030;-59
2023/12/15 10:17:16;;;;;;;52.95;30.77;;;;;;;7.13;100.00;103393.31;5032047;28;20390;-59
2023/12/15 10:19:41;;;;;;;58.95;31.75;;;;;;;7.15;100.00;103400.28;5031910;28;20580;-59
2023/12/15 10:22:07;;;;;;;60.15;32.63;;;;;;;7.15;100.00;103400.28;5038700;28;20021;-59
2023/12/15 10:24:33;;;;;;;53.58;30.42;;;;;;;7.14;100.00;103397.69;5040793;28;20470;-59
2023/12/15 10:27:03;;;;;;;54.97;32.25;;;;;;;7.16;100.00;103407.34;5036224;28;20109;-59
2023/12/15 10:29:29;;;;;;;56.35;30.73;;;;;;;7.19;100.00;103417.84;5040356;28;20017;-59
2023/12/15 10:31:55;;;;;;;55.83;32.05;;;;;;;7.19;100.00;103423.13;5039331;28;20025;-58
2023/12/15 10:34:25;;;;;;;56.20;29.48;;;;;;;7.22;100.00;103422.19;5043278;28;20037;-59
2023/12/15 10:36:51;;;;;;;54.20;30.90;;;;;;;7.22;100.00;103433.63;5038010;28;20017;-59
2023/12/15 10:39:17;;;;;;;51.97;28.90;;;;;;;7.25;100.00;103434.47;5038266;28;20026;-58
2023/12/15 10:41:43;;;;;;;55.72;28.95;;;;;;;7.26;100.00;103431.81;5038112;28;20026;-59
2023/12/15 10:44:11;;;;;;;56.10;29.23;;;;;;;7.27;100.00;103432.66;5038566;28;20025;-60
2023/12/15 10:46:39;;;;;;;48.35;28.55;;;;;;;7.28;100.00;103448.50;5033680;28;20092;-59
2023/12/15 10:49:06;;;;;;;47.27;27.73;;;;;;;7.30;100.00;103449.31;5041142;28;20032;-59
2023/12/15 10:51:33;;;;;;;49.58;27.08;;;;;;;7.33;100.00;103445.75;5037185;28;20040;-58
2023/12/15 10:54:01;;;;;;;50.10;27.77;;;;;;;7.34;100.00;103450.97;5040544;28;20480;-58
2023/12/15 10:56:26;;;;;;;49.28;28.38;;;;;;;7.34;100.00;103453.63;5037361;28;20029;-59
2023/12/15 10:58:53;;;;;;;44.03;27.17;;;;;;;7.37;100.00;103452.72;5041313;28;20025;-59
2023/12/15 11:01:20;;;;;;;49.17;25.58;;;;;;;7.37;100.00;103455.34;5036391;28;20030;-60